Time;durP1;ratioP1;P1;durP2;ratioP2;P2;SDS_P1;SDS_P2;PMS_P1;PMS_P2;Temp;Humidity;BMP_temperature;BMP_pressure;BME280_temperature;BME280_humidity;BME280_pressure;Samples;Min_cycle;Max_cycle;Signal;HPM_P1;HPM_P2
2022/07/21 00:01:34;;;;;;;6.53;5.38;;;;;;;;;;10428158;28;20054;-78
2022/07/21 00:06:35;;;;;;;6.72;5.72;;;;;;;;;;10407083;28;20508;-80
2022/07/21 00:11:35;;;;;;;5.95;5.35;;;;;;;;;;10426719;28;20037;-79
2022/07/21 00:16:38;;;;;;;6.10;5.47;;;;;;;;;;10409429;28;20058;-78
2022/07/21 00:21:39;;;;;;;6.75;6.15;;;;;;;;;;10409008;28;20109;-79
2022/07/21 00:26:39;;;;;;;7.07;5.63;;;;;;;;;;10417347;28;20132;-77
2022/07/21 00:31:41;;;;;;;6.32;5.40;;;;;;;;;;10436963;28;20550;-79
2022/07/21 00:36:42;;;;;;;7.68;4.88;;;;;;;;;;10417570;28;20143;-78
2022/07/21 00:41:42;;;;;;;6.77;5.30;;;;;;;;;;10417057;28;20044;-78
2022/07/21 00:46:42;;;;;;;4.95;4.40;;;;;;;;;;10415964;28;20113;-77
2022/07/21 00:51:43;;;;;;;5.13;4.63;;;;;;;;;;10423065;28;20049;-80
2022/07/21 00:56:44;;;;;;;6.05;4.70;;;;;;;;;;10419792;28;20311;-80
2022/07/21 01:01:45;;;;;;;5.38;4.40;;;;;;;;;;10420017;28;20048;-80
2022/07/21 01:06:45;;;;;;;5.22;4.38;;;;;;;;;;10415921;28;20045;-80
2022/07/21 01:11:46;;;;;;;4.97;4.50;;;;;;;;;;10406935;28;20072;-79
2022/07/21 01:16:46;;;;;;;5.32;4.07;;;;;;;;;;10404047;28;20133;-80
2022/07/21 01:21:48;;;;;;;5.17;4.43;;;;;;;;;;10419505;28;20049;-80
2022/07/21 01:26:49;;;;;;;6.00;4.53;;;;;;;;;;10431044;28;20068;-79
2022/07/21 01:31:50;;;;;;;7.17;5.30;;;;;;;;;;10458680;28;20042;-77
2022/07/21 01:36:51;;;;;;;7.63;5.32;;;;;;;;;;10435629;28;20064;-78
2022/07/21 01:41:51;;;;;;;7.97;5.73;;;;;;;;;;10412523;28;20065;-79
2022/07/21 01:46:52;;;;;;;7.13;5.37;;;;;;;;;;10412439;28;20136;-81
2022/07/21 01:51:53;;;;;;;6.63;5.85;;;;;;;;;;10423998;28;20117;-78
2022/07/21 01:56:53;;;;;;;7.50;5.50;;;;;;;;;;10409150;28;20410;-78
2022/07/21 02:01:53;;;;;;;8.83;5.90;;;;;;;;;;10405061;28;20110;-78
2022/07/21 02:06:54;;;;;;;7.05;6.00;;;;;;;;;;10404676;28;20742;-79
2022/07/21 02:11:54;;;;;;;7.50;6.25;;;;;;;;;;10407833;28;20112;-79
2022/07/21 02:16:55;;;;;;;6.57;5.70;;;;;;;;;;10413734;28;20064;-77
2022/07/21 02:21:55;;;;;;;6.45;5.55;;;;;;;;;;10404488;28;20122;-77
2022/07/21 02:26:55;;;;;;;7.23;5.93;;;;;;;;;;10405998;28;20209;-77
2022/07/21 02:31:56;;;;;;;6.03;5.43;;;;;;;;;;10415171;28;20299;-78
2022/07/21 02:36:56;;;;;;;6.05;5.45;;;;;;;;;;10421348;28;20065;-77
2022/07/21 02:41:57;;;;;;;6.80;6.10;;;;;;;;;;10414946;28;20045;-79
2022/07/21 02:46:57;;;;;;;7.72;6.38;;;;;;;;;;10394355;28;20084;-78
2022/07/21 02:51:57;;;;;;;7.15;6.13;;;;;;;;;;10410501;28;20041;-79
2022/07/21 02:56:58;;;;;;;6.40;5.80;;;;;;;;;;10406517;28;20150;-78
2022/07/21 03:01:59;;;;;;;7.65;6.18;;;;;;;;;;10418502;28;20847;-78
2022/07/21 03:06:59;;;;;;;8.50;6.32;;;;;;;;;;10407646;28;20484;-79
2022/07/21 03:11:59;;;;;;;7.40;6.27;;;;;;;;;;10400984;28;20060;-78
2022/07/21 03:17:02;;;;;;;8.27;6.67;;;;;;;;;;10418381;28;20106;-78
2022/07/21 03:22:02;;;;;;;;;;;;;;;;;;10407913;28;20042;-76
2022/07/21 03:27:02;;;;;;;9.73;7.78;;;;;;;;;;10412913;28;19928;-76
2022/07/21 03:32:03;;;;;;;8.60;6.90;;;;;;;;;;10448289;28;20056;-79
2022/07/21 03:37:03;;;;;;;8.52;7.43;;;;;;;;;;10454698;28;20049;-80
2022/07/21 03:42:04;;;;;;;8.43;7.47;;;;;;;;;;10404438;28;20391;-79
2022/07/21 03:47:05;;;;;;;10.60;8.32;;;;;;;;;;10408609;28;20268;-78
2022/07/21 03:52:05;;;;;;;8.65;7.55;;;;;;;;;;10411682;28;20124;-78
2022/07/21 03:57:07;;;;;;;11.23;8.47;;;;;;;;;;10411467;28;20061;-81
2022/07/21 04:02:07;;;;;;;9.50;7.73;;;;;;;;;;10424096;28;20366;-78
2022/07/21 04:07:07;;;;;;;10.83;8.33;;;;;;;;;;10415723;28;20073;-80
2022/07/21 04:12:08;;;;;;;11.40;9.23;;;;;;;;;;10416093;28;20056;-77
2022/07/21 04:17:08;;;;;;;11.43;10.23;;;;;;;;;;10431186;28;20156;-77
2022/07/21 04:22:08;;;;;;;10.60;9.00;;;;;;;;;;10416304;28;20133;-78
2022/07/21 04:27:09;;;;;;;12.07;9.67;;;;;;;;;;10415827;28;20067;-78
2022/07/21 04:32:09;;;;;;;13.77;9.85;;;;;;;;;;10413545;28;20140;-78
2022/07/21 04:37:10;;;;;;;14.37;11.67;;;;;;;;;;10416276;28;20112;-78
2022/07/21 04:42:10;;;;;;;11.23;10.03;;;;;;;;;;10411052;28;20053;-81
2022/07/21 04:47:10;;;;;;;13.73;11.35;;;;;;;;;;10445417;28;20212;-71
2022/07/21 04:52:11;;;;;;;13.27;11.00;;;;;;;;;;10414940;28;20057;-68
2022/07/21 04:57:11;;;;;;;13.80;12.00;;;;;;;;;;10406441;28;20128;-73
2022/07/21 05:02:12;;;;;;;12.32;10.15;;;;;;;;;;10422429;28;20045;-75
2022/07/21 05:07:12;;;;;;;14.57;12.43;;;;;;;;;;10422655;28;20047;-69
2022/07/21 05:12:13;;;;;;;18.00;14.77;;;;;;;;;;10406095;28;20053;-72
2022/07/21 05:17:13;;;;;;;17.25;14.88;;;;;;;;;;10404729;28;20290;-73
2022/07/21 05:22:14;;;;;;;22.30;16.77;;;;;;;;;;10412060;28;20060;-69
2022/07/21 05:27:14;;;;;;;21.02;18.00;;;;;;;;;;10416471;28;20058;-71
2022/07/21 05:32:15;;;;;;;20.30;15.57;;;;;;;;;;10433455;28;20087;-70
2022/07/21 05:37:16;;;;;;;20.15;16.63;;;;;;;;;;10407726;28;20057;-68
2022/07/21 05:42:17;;;;;;;21.17;18.20;;;;;;;;;;10403193;28;20107;-70
2022/07/21 05:47:17;;;;;;;19.52;16.95;;;;;;;;;;10416019;28;20056;-69
2022/07/21 05:52:18;;;;;;;18.83;16.50;;;;;;;;;;10419891;28;20052;-69
2022/07/21 05:57:18;;;;;;;26.80;19.00;;;;;;;;;;10404457;28;20053;-70
2022/07/21 06:02:19;;;;;;;24.07;19.70;;;;;;;;;;10400068;28;20330;-70
2022/07/21 06:07:19;;;;;;;25.30;21.20;;;;;;;;;;10400496;28;20549;-70
2022/07/21 06:12:19;;;;;;;24.83;19.83;;;;;;;;;;10401572;28;20053;-68
2022/07/21 06:17:20;;;;;;;25.83;21.67;;;;;;;;;;10398632;28;20160;-69
2022/07/21 06:22:20;;;;;;;22.00;19.65;;;;;;;;;;10401833;28;20272;-70
2022/07/21 06:27:21;;;;;;;23.53;20.67;;;;;;;;;;10405412;28;20057;-69
2022/07/21 06:32:21;;;;;;;24.40;20.70;;;;;;;;;;10414742;28;20053;-75
2022/07/21 06:37:21;;;;;;;23.55;18.60;;;;;;;;;;10407166;28;20284;-70
2022/07/21 06:42:22;;;;;;;23.25;19.73;;;;;;;;;;10401946;28;20125;-70
2022/07/21 06:47:22;;;;;;;23.70;19.98;;;;;;;;;;10405610;28;20117;-69
2022/07/21 06:52:23;;;;;;;25.05;19.83;;;;;;;;;;10387132;28;20136;-70
2022/07/21 06:57:23;;;;;;;19.20;17.10;;;;;;;;;;10416481;28;20058;-69
2022/07/21 07:02:23;;;;;;;21.92;17.02;;;;;;;;;;10400562;28;20590;-70
2022/07/21 07:07:24;;;;;;;21.80;17.50;;;;;;;;;;10402041;28;20053;-70
2022/07/21 07:12:24;;;;;;;22.43;18.00;;;;;;;;;;10406710;28;20522;-70
2022/07/21 07:17:25;;;;;;;21.25;17.75;;;;;;;;;;10401854;28;20397;-75
2022/07/21 07:22:26;;;;;;;19.37;16.93;;;;;;;;;;10401519;28;20053;-71
2022/07/21 07:27:59;;;;;;;19.83;17.73;;;;;;;;;;10408704;28;20355;-71
2022/07/21 07:32:59;;;;;;;17.45;15.45;;;;;;;;;;10417528;28;20045;-74
2022/07/21 07:37:59;;;;;;;18.30;16.43;;;;;;;;;;10390401;28;20057;-70
2022/07/21 07:43:00;;;;;;;18.35;16.45;;;;;;;;;;10414037;28;20292;-71
2022/07/21 07:48:00;;;;;;;20.13;17.30;;;;;;;;;;10417765;28;20136;-76
2022/07/21 07:53:00;;;;;;;19.13;16.03;;;;;;;;;;10417265;28;20639;-72
2022/07/21 07:58:01;;;;;;;18.33;16.20;;;;;;;;;;10416376;28;20404;-74
2022/07/21 08:03:02;;;;;;;19.02;15.77;;;;;;;;;;10415966;28;20275;-70
2022/07/21 08:08:04;;;;;;;18.43;16.53;;;;;;;;;;10432316;28;20048;-70
2022/07/21 08:13:04;;;;;;;16.65;13.48;;;;;;;;;;10413432;28;20284;-71
2022/07/21 08:18:05;;;;;;;15.15;13.60;;;;;;;;;;10417060;28;20089;-78
2022/07/21 08:23:06;;;;;;;16.50;14.82;;;;;;;;;;10416565;28;20045;-73
2022/07/21 08:28:06;;;;;;;17.55;13.95;;;;;;;;;;10412926;28;20406;-71
2022/07/21 08:33:07;;;;;;;16.52;14.73;;;;;;;;;;10414854;28;20145;-71
2022/07/21 08:38:08;;;;;;;14.07;12.68;;;;;;;;;;10402341;28;20057;-71
2022/07/21 08:43:09;;;;;;;12.80;11.50;;;;;;;;;;10409040;28;20045;-73
2022/07/21 08:48:09;;;;;;;12.52;11.32;;;;;;;;;;10402684;28;20041;-70
2022/07/21 08:53:10;;;;;;;11.88;10.55;;;;;;;;;;10408762;28;20847;-70
2022/07/21 08:58:12;;;;;;;13.02;11.00;;;;;;;;;;10405028;28;20061;-71
2022/07/21 09:03:12;;;;;;;11.95;10.73;;;;;;;;;;10407602;28;20095;-70
2022/07/21 09:08:12;;;;;;;14.70;12.10;;;;;;;;;;10409549;28;20489;-71
2022/07/21 09:13:13;;;;;;;11.80;10.60;;;;;;;;;;10431464;28;20288;-77
2022/07/21 09:18:15;;;;;;;10.93;9.80;;;;;;;;;;10410855;28;20053;-76
2022/07/21 09:23:15;;;;;;;;;;;;;;;;;;10428838;28;20276;-76
2022/07/21 09:28:23;;;;;;;11.88;10.35;;;;;;;;;;10423176;28;19917;-76
2022/07/21 09:33:23;;;;;;;12.18;10.98;;;;;;;;;;10430778;28;20060;-75
2022/07/21 09:38:25;;;;;;;10.00;8.80;;;;;;;;;;10396609;28;20049;-76
2022/07/21 09:43:33;;;;;;;9.70;8.73;;;;;;;;;;10415266;28;20661;-76
2022/07/21 09:48:34;;;;;;;9.43;8.52;;;;;;;;;;10416328;28;20049;-78
2022/07/21 09:53:47;;;;;;;10.10;8.50;;;;;;;;;;10431600;28;20119;-77
2022/07/21 09:58:50;;;;;;;8.38;7.57;;;;;;;;;;10454522;28;20053;-75
2022/07/21 10:03:51;;;;;;;8.55;7.43;;;;;;;;;;10435771;28;20356;-77
2022/07/21 10:08:52;;;;;;;8.68;7.78;;;;;;;;;;10394144;28;20052;-77
2022/07/21 10:13:53;;;;;;;8.60;7.80;;;;;;;;;;10411296;28;20053;-77
2022/07/21 10:18:56;;;;;;;11.52;8.43;;;;;;;;;;10395000;28;20049;-77
2022/07/21 10:24:10;;;;;;;8.10;7.30;;;;;;;;;;10403244;28;20160;-76
2022/07/21 10:29:10;;;;;;;8.73;7.67;;;;;;;;;;10409689;28;20079;-77
2022/07/21 10:34:11;;;;;;;7.27;6.57;;;;;;;;;;10412875;28;20065;-77
2022/07/21 10:39:15;;;;;;;5.20;4.70;;;;;;;;;;10403932;28;20125;-78
2022/07/21 10:44:38;;;;;;;5.50;5.00;;;;;;;;;;10407410;28;20060;-77
2022/07/21 10:49:49;;;;;;;5.97;5.40;;;;;;;;;;10405465;28;20049;-75
2022/07/21 10:55:08;;;;;;;8.07;5.50;;;;;;;;;;10400940;28;20357;-75
2022/07/21 11:00:20;;;;;;;6.68;5.53;;;;;;;;;;10401583;28;20061;-77
2022/07/21 11:05:21;;;;;;;8.20;6.38;;;;;;;;;;10405965;28;20096;-76
2022/07/21 11:10:24;;;;;;;6.77;6.17;;;;;;;;;;10397953;28;20052;-76
2022/07/21 11:15:44;;;;;;;7.82;6.22;;;;;;;;;;10407927;28;20053;-75
2022/07/21 11:21:03;;;;;;;6.22;5.72;;;;;;;;;;10430355;28;20100;-80
2022/07/21 11:26:05;;;;;;;5.70;5.22;;;;;;;;;;10438105;28;20057;-79
2022/07/21 11:31:16;;;;;;;6.70;6.07;;;;;;;;;;10419525;28;20140;-81
2022/07/21 11:36:27;;;;;;;6.18;5.50;;;;;;;;;;10408982;28;20084;-79
2022/07/21 11:41:28;;;;;;;6.60;5.10;;;;;;;;;;10396753;28;20052;-78
2022/07/21 11:46:50;;;;;;;5.07;4.60;;;;;;;;;;10399309;28;20051;-78
2022/07/21 11:51:54;;;;;;;6.93;5.40;;;;;;;;;;10403561;28;20471;-78
2022/07/21 11:56:55;;;;;;;6.75;5.60;;;;;;;;;;10419741;28;20464;-79
2022/07/21 12:02:04;;;;;;;5.57;5.07;;;;;;;;;;10413592;28;20284;-74
2022/07/21 12:07:06;;;;;;;5.47;5.03;;;;;;;;;;10407855;28;20053;-75
2022/07/21 12:12:07;;;;;;;5.30;4.90;;;;;;;;;;10402312;28;20058;-73
2022/07/21 12:17:07;;;;;;;5.80;5.20;;;;;;;;;;10411395;28;20467;-73
2022/07/21 12:22:08;;;;;;;6.73;5.30;;;;;;;;;;10408281;28;20099;-75
2022/07/21 12:27:12;;;;;;;6.17;5.20;;;;;;;;;;10428159;28;20140;-75
2022/07/21 12:32:13;;;;;;;5.95;5.40;;;;;;;;;;10412639;28;20489;-74
2022/07/21 12:37:13;;;;;;;4.93;4.53;;;;;;;;;;10413987;28;20072;-74
2022/07/21 12:42:30;;;;;;;5.40;4.90;;;;;;;;;;10415264;28;20329;-76
2022/07/21 12:47:31;;;;;;;5.45;4.95;;;;;;;;;;10413895;28;20049;-78
2022/07/21 12:52:31;;;;;;;5.47;4.90;;;;;;;;;;10430074;28;20042;-80
2022/07/21 12:57:32;;;;;;;5.90;5.40;;;;;;;;;;10420417;28;20074;-79
2022/07/21 13:02:55;;;;;;;5.53;5.03;;;;;;;;;;10415035;28;20042;-80
2022/07/21 13:07:57;;;;;;;5.28;4.78;;;;;;;;;;10432702;28;20064;-77
2022/07/21 13:12:58;;;;;;;5.33;4.77;;;;;;;;;;10370419;28;1120071;-80
2022/07/21 13:17:58;;;;;;;4.93;4.53;;;;;;;;;;10421387;28;20053;-80
2022/07/21 13:22:59;;;;;;;6.43;4.93;;;;;;;;;;10419219;28;20054;-79
2022/07/21 13:27:59;;;;;;;5.40;4.93;;;;;;;;;;10423164;28;20949;-80
2022/07/21 13:32:59;;;;;;;6.50;4.70;;;;;;;;;;10435935;28;20049;-79
2022/07/21 13:38:00;;;;;;;4.97;4.50;;;;;;;;;;10427861;28;20060;-75
2022/07/21 13:43:00;;;;;;;4.53;4.13;;;;;;;;;;10412950;28;20061;-78
2022/07/21 13:48:01;;;;;;;6.20;4.57;;;;;;;;;;10405968;28;20049;-77
2022/07/21 13:53:02;;;;;;;6.45;4.63;;;;;;;;;;10416382;28;20121;-77
2022/07/21 13:58:02;;;;;;;5.37;4.87;;;;;;;;;;10411345;28;20058;-79
2022/07/21 14:03:04;;;;;;;;;;;;;;;;;;10423635;28;20042;-77
2022/07/21 14:08:04;;;;;;;4.73;4.20;;;;;;;;;;10437215;28;20035;-76
2022/07/21 14:13:05;;;;;;;4.97;4.57;;;;;;;;;;10427621;28;20365;-78
2022/07/21 14:18:05;;;;;;;5.00;4.37;;;;;;;;;;10413619;28;20081;-78
2022/07/21 14:23:06;;;;;;;5.07;4.67;;;;;;;;;;10419389;28;20195;-77
2022/07/21 14:28:06;;;;;;;4.63;4.23;;;;;;;;;;10402301;28;20044;-78
2022/07/21 14:33:07;;;;;;;6.67;4.80;;;;;;;;;;10404151;28;20160;-79
2022/07/21 14:38:08;;;;;;;5.38;4.88;;;;;;;;;;10402106;28;20060;-77
2022/07/21 14:43:08;;;;;;;5.87;5.10;;;;;;;;;;10403324;28;20055;-78
2022/07/21 14:48:10;;;;;;;5.47;4.90;;;;;;;;;;10431423;28;20427;-78
2022/07/21 14:53:14;;;;;;;6.07;4.80;;;;;;;;;;10411703;28;20060;-78
2022/07/21 14:58:15;;;;;;;6.20;5.13;;;;;;;;;;10413446;28;20851;-78
2022/07/21 15:03:17;;;;;;;6.97;6.00;;;;;;;;;;10409530;28;20048;-79
2022/07/21 15:08:17;;;;;;;5.95;5.35;;;;;;;;;;10413263;28;20049;-77
2022/07/21 15:13:20;;;;;;;5.97;5.00;;;;;;;;;;10399879;28;20052;-75
2022/07/21 15:18:21;;;;;;;6.10;5.13;;;;;;;;;;10409561;28;20061;-77
2022/07/21 15:23:22;;;;;;;5.68;5.15;;;;;;;;;;10413526;28;20132;-77
2022/07/21 15:28:22;;;;;;;5.87;4.97;;;;;;;;;;10405873;28;20132;-76
2022/07/21 15:33:23;;;;;;;5.87;5.17;;;;;;;;;;10417788;28;20078;-76
2022/07/21 15:38:24;;;;;;;5.27;4.77;;;;;;;;;;10387080;28;20053;-78
2022/07/21 15:43:24;;;;;;;5.63;5.13;;;;;;;;;;10401728;28;20346;-77
2022/07/21 15:48:24;;;;;;;5.57;5.00;;;;;;;;;;10401539;28;20041;-79
2022/07/21 15:53:25;;;;;;;6.27;5.53;;;;;;;;;;10412588;28;20378;-72
2022/07/21 15:58:25;;;;;;;5.50;5.00;;;;;;;;;;10409194;28;20057;-72
2022/07/21 16:03:25;;;;;;;5.53;4.97;;;;;;;;;;10410987;28;20133;-74
2022/07/21 16:08:27;;;;;;;5.70;5.20;;;;;;;;;;10422953;28;20041;-72
2022/07/21 16:13:29;;;;;;;6.43;5.25;;;;;;;;;;10403696;28;20061;-72
2022/07/21 16:18:29;;;;;;;5.80;5.28;;;;;;;;;;10405127;28;20061;-72
2022/07/21 16:23:30;;;;;;;5.63;5.13;;;;;;;;;;10407649;28;20087;-72
2022/07/21 16:28:30;;;;;;;8.00;7.20;;;;;;;;;;10409076;28;20579;-74
2022/07/21 16:33:30;;;;;;;5.30;4.90;;;;;;;;;;10411897;28;20052;-73
2022/07/21 16:38:31;;;;;;;5.67;5.17;;;;;;;;;;10399017;28;20088;-72
2022/07/21 16:43:31;;;;;;;4.90;4.43;;;;;;;;;;10413180;28;20076;-72
2022/07/21 16:48:32;;;;;;;5.57;5.03;;;;;;;;;;10408241;28;20231;-71
2022/07/21 16:53:32;;;;;;;5.20;4.70;;;;;;;;;;10416332;28;20049;-71
2022/07/21 16:58:33;;;;;;;6.13;5.30;;;;;;;;;;10406648;28;20053;-72
2022/07/21 17:03:33;;;;;;;5.80;5.10;;;;;;;;;;10406901;28;20052;-72
2022/07/21 17:08:34;;;;;;;5.63;5.10;;;;;;;;;;10406196;28;20060;-73
2022/07/21 17:13:34;;;;;;;5.53;5.03;;;;;;;;;;10402467;28;20225;-71
2022/07/21 17:18:35;;;;;;;5.80;5.27;;;;;;;;;;10402261;28;20057;-73
2022/07/21 17:23:36;;;;;;;5.23;4.77;;;;;;;;;;10403381;28;20156;-72
2022/07/21 17:28:36;;;;;;;6.27;5.30;;;;;;;;;;10406221;28;20055;-73
2022/07/21 17:33:36;;;;;;;5.40;4.90;;;;;;;;;;10392563;28;20272;-73
2022/07/21 17:38:37;;;;;;;5.50;5.00;;;;;;;;;;10408295;28;20060;-75
2022/07/21 17:43:37;;;;;;;5.93;5.37;;;;;;;;;;10412811;28;20041;-74
2022/07/21 17:48:38;;;;;;;5.43;4.93;;;;;;;;;;10410113;28;20048;-73
2022/07/21 17:53:38;;;;;;;5.37;4.77;;;;;;;;;;10410572;28;20095;-74
2022/07/21 17:58:45;;;;;;;6.27;5.00;;;;;;;;;;10408667;28;20054;-74
2022/07/21 18:03:45;;;;;;;5.05;4.65;;;;;;;;;;10431156;28;20490;-79
2022/07/21 18:08:46;;;;;;;5.57;5.07;;;;;;;;;;10441226;28;20041;-80
2022/07/21 18:13:47;;;;;;;5.93;5.13;;;;;;;;;;10457621;28;20443;-78
2022/07/21 18:18:47;;;;;;;5.27;4.77;;;;;;;;;;10413340;28;20075;-77
2022/07/21 18:23:48;;;;;;;5.43;4.93;;;;;;;;;;10397808;28;20053;-81
2022/07/21 18:28:48;;;;;;;5.80;5.30;;;;;;;;;;10403471;28;20065;-77
2022/07/21 18:33:48;;;;;;;5.80;4.83;;;;;;;;;;10415214;28;20045;-77
2022/07/21 18:38:49;;;;;;;14.50;12.73;;;;;;;;;;10402547;28;20053;-77
2022/07/21 18:43:49;;;;;;;6.70;5.87;;;;;;;;;;10402963;28;20476;-78
2022/07/21 18:48:50;;;;;;;6.30;5.20;;;;;;;;;;10389253;28;20131;-78
2022/07/21 18:53:52;;;;;;;5.60;5.10;;;;;;;;;;10421234;28;20061;-78
2022/07/21 18:58:52;;;;;;;5.82;5.25;;;;;;;;;;10403700;28;21014;-77
2022/07/21 19:03:53;;;;;;;6.87;5.57;;;;;;;;;;10411548;28;20056;-78
2022/07/21 19:08:53;;;;;;;7.77;5.83;;;;;;;;;;10411126;28;20111;-77
2022/07/21 19:13:54;;;;;;;7.33;6.60;;;;;;;;;;10413110;28;20395;-79
2022/07/21 19:18:54;;;;;;;5.77;5.27;;;;;;;;;;10418337;28;20057;-79
2022/07/21 19:23:55;;;;;;;6.70;6.00;;;;;;;;;;10439364;28;20064;-80
2022/07/21 19:28:55;;;;;;;6.30;5.70;;;;;;;;;;10405741;28;20158;-78
2022/07/21 19:33:55;;;;;;;6.73;6.00;;;;;;;;;;10431078;28;20041;-79
2022/07/21 19:38:56;;;;;;;6.95;6.22;;;;;;;;;;10448440;28;20061;-79
2022/07/21 19:43:57;;;;;;;6.65;5.72;;;;;;;;;;10446111;28;20618;-78
2022/07/21 19:48:58;;;;;;;7.85;6.10;;;;;;;;;;10428698;28;20124;-80
2022/07/21 19:54:01;;;;;;;7.00;5.85;;;;;;;;;;10406315;28;20053;-81
2022/07/21 19:59:03;;;;;;;7.03;6.38;;;;;;;;;;10410672;28;20053;-80
2022/07/21 20:04:06;;;;;;;6.85;6.15;;;;;;;;;;10414153;28;20049;-80
2022/07/21 20:09:09;;;;;;;7.35;6.65;;;;;;;;;;10411607;28;20595;-80
2022/07/21 20:14:11;;;;;;;7.47;6.75;;;;;;;;;;10442858;28;20050;-78
2022/07/21 20:19:11;;;;;;;7.18;6.45;;;;;;;;;;10433406;28;20057;-79
2022/07/21 20:24:15;;;;;;;7.23;6.47;;;;;;;;;;10418758;28;20088;-79
2022/07/21 20:29:16;;;;;;;7.03;6.35;;;;;;;;;;10416004;28;20277;-79
2022/07/21 20:34:19;;;;;;;7.13;6.43;;;;;;;;;;10408770;28;20463;-79
2022/07/21 20:39:20;;;;;;;11.10;6.97;;;;;;;;;;10430172;28;20053;-78
2022/07/21 20:44:22;;;;;;;7.10;6.38;;;;;;;;;;10424114;28;20049;-78
2022/07/21 20:49:23;;;;;;;7.30;6.55;;;;;;;;;;10414156;28;20061;-79
2022/07/21 20:54:24;;;;;;;7.40;6.70;;;;;;;;;;10428019;28;20068;-79
2022/07/21 20:59:24;;;;;;;7.33;6.60;;;;;;;;;;10410639;28;21055;-79
2022/07/21 21:04:25;;;;;;;6.45;5.85;;;;;;;;;;10434368;28;20192;-79
2022/07/21 21:09:26;;;;;;;7.10;6.40;;;;;;;;;;10401769;28;20060;-79
2022/07/21 21:14:26;;;;;;;7.30;6.28;;;;;;;;;;10422685;28;20053;-79
2022/07/21 21:19:27;;;;;;;7.47;6.87;;;;;;;;;;10415982;28;20054;-81
2022/07/21 21:24:27;;;;;;;7.87;6.97;;;;;;;;;;10412689;28;20709;-78
2022/07/21 21:29:28;;;;;;;7.25;6.55;;;;;;;;;;10404815;28;20442;-77
2022/07/21 21:34:29;;;;;;;7.70;6.90;;;;;;;;;;10423621;28;20045;-80
2022/07/21 21:39:30;;;;;;;7.63;6.93;;;;;;;;;;10441238;28;20058;-82
2022/07/21 21:44:31;;;;;;;7.80;7.10;;;;;;;;;;10424970;28;20136;-81
2022/07/21 21:49:31;;;;;;;8.02;7.05;;;;;;;;;;10427591;28;20571;-80
2022/07/21 21:54:32;;;;;;;6.83;6.23;;;;;;;;;;10432287;28;20108;-81
2022/07/21 21:59:40;;;;;;;8.70;7.10;;;;;;;;;;10404791;28;20147;-80
2022/07/21 22:04:41;;;;;;;7.88;6.70;;;;;;;;;;10415983;28;20112;-80
2022/07/21 22:09:41;;;;;;;7.80;6.83;;;;;;;;;;10441257;28;20029;-80
2022/07/21 22:14:42;;;;;;;8.15;7.22;;;;;;;;;;10484657;28;20075;-82
2022/07/21 22:19:44;;;;;;;8.05;7.25;;;;;;;;;;10446301;28;20059;-81
2022/07/21 22:24:44;;;;;;;8.02;7.22;;;;;;;;;;10464596;28;20054;-82
2022/07/21 22:29:44;;;;;;;8.30;7.15;;;;;;;;;;10430335;28;20056;-78
2022/07/21 22:34:46;;;;;;;8.10;7.30;;;;;;;;;;10452255;28;20041;-79
2022/07/21 22:39:48;;;;;;;8.60;7.73;;;;;;;;;;10408692;28;20428;-79
2022/07/21 22:44:49;;;;;;;9.10;7.75;;;;;;;;;;10411172;28;20347;-79
2022/07/21 22:49:50;;;;;;;9.10;8.25;;;;;;;;;;10414068;28;20519;-78
2022/07/21 22:54:50;;;;;;;8.20;7.40;;;;;;;;;;10422538;28;20045;-79
2022/07/21 22:59:50;;;;;;;10.10;8.53;;;;;;;;;;10428287;28;20041;-79
2022/07/21 23:04:51;;;;;;;8.43;7.53;;;;;;;;;;10434606;28;21078;-79
2022/07/21 23:09:52;;;;;;;8.43;7.47;;;;;;;;;;10416212;28;20075;-79
2022/07/21 23:14:53;;;;;;;8.57;7.77;;;;;;;;;;10408275;28;20412;-79
2022/07/21 23:19:53;;;;;;;9.63;8.57;;;;;;;;;;10410507;28;20045;-79
2022/07/21 23:24:53;;;;;;;8.50;7.70;;;;;;;;;;10413992;28;20119;-79
2022/07/21 23:29:54;;;;;;;8.17;7.37;;;;;;;;;;10427336;28;20124;-78
2022/07/21 23:34:54;;;;;;;8.55;7.68;;;;;;;;;;10418849;28;20637;-78
2022/07/21 23:39:54;;;;;;;8.93;8.07;;;;;;;;;;10413434;28;20058;-80
2022/07/21 23:44:57;;;;;;;9.90;8.60;;;;;;;;;;10423221;28;20295;-78
2022/07/21 23:49:59;;;;;;;11.18;8.77;;;;;;;;;;10422863;28;20056;-80
2022/07/21 23:55:04;;;;;;;10.70;9.10;;;;;;;;;;10419092;28;20088;-77
